Aviation Digital Data Service (ADDS)

Output produced by METARs form (1259 UTC 20 September 2017)
found at http://aviationweather.gov/adds/metars/
 
KBDR 201123Z 2012/2112 02018G29KT P6SM BKN025 
     FM201700 35019G29KT P6SM BKN035 BKN250 
     FM202200 35016G25KT P6SM SCT035 BKN250 
     FM210200 36013KT P6SM SCT025 BKN250